Latest Weather Observations for Newman Airport

IDW60801

Issued at 12:05 pm WST Wednesday 3 September 2014 (issued every 30 minutes, with the page automatically refreshed every 10 minutes)

About weather observations | Map of weather stations | Latest weather observations for WA | Other Formats
Station Details ID: 007176 Name: NEWMAN AERO Lat: -23.42 Lon: 119.80 Height: 524.0 m
Data from the previous 72 hours. | See also: Recent months at Newman Airport
Date/Time
WST
Temp
°C
App
Temp
°C
Dew
Point
Rel
Hum
%
Delta-T
°C
Wind Press
QNH
hPa
Press
MSL
hPa
Rain
since 9 am
mm
Dir
 
Spd
km/h
Gust
km/h
Spd
kts
Gust
kts
03/12:00pm 31.6 26.1 -15.3 4 17.9 NNE 11 24 6 13 1017.9 1015.6 0.0
03/11:30am 31.1 26.5 -12.9 5 17.4 N 7 13 4 7 1018.4 1016.2 0.0
03/11:00am 30.2 25.9 -9.4 7 16.5 SSE 7 11 4 6 1018.7 1016.5 0.0
03/10:30am 28.9 24.4 -7.1 9 15.4 SW 9 11 5 6 1019.3 1017.1 0.0
03/10:00am 27.4 23.3 -6.9 10 14.5 SW 7 11 4 6 1019.7 1017.4 0.0
03/09:30am 25.6 21.2 -5.9 12 13.4 SW 9 13 5 7 1020.0 1017.8 0.0
03/09:00am 24.1 19.4 -5.0 14 12.4 SW 11 15 6 8 1020.1 1017.9 0.0
03/08:30am 20.8 16.9 -4.4 18 10.6 SW 7 9 4 5 1020.0 1017.8 0.0
03/08:00am 17.6 14.4 -3.7 23 8.8 NW 4 9 2 5 1020.0 1017.8 0.0
03/07:30am 15.4 12.8 -4.5 25 7.9 CALM 0 0 0 0 1019.9 1017.7 0.0
03/07:00am 13.5 10.9 -4.6 28 7.0 CALM 0 4 0 2 1019.5 1017.2 0.0
03/06:30am 11.2 6.9 -4.5 33 5.9 NE 9 11 5 6 1019.2 1017.0 0.0
03/06:00am 12.5 9.8 -5.5 28 6.7 SW 0 6 0 3 1018.9 1016.7 0.0
03/05:30am 13.1 9.1 -5.4 27 7.0 SW 7 13 4 7 1018.8 1016.6 0.0
03/05:00am 12.9 8.1 -5.6 27 7.0 SSW 11 13 6 7 1018.5 1016.3 0.0
03/04:30am 12.8 10.1 -5.7 27 6.9 CALM 0 6 0 3 1018.6 1016.4 0.0
03/04:00am 12.0 7.2 -5.9 28 6.6 WSW 11 15 6 8 1018.2 1016.0 0.0
03/03:30am 11.8 7.4 -5.6 29 6.5 W 9 11 5 6 1018.0 1015.7 0.0
03/03:00am 12.7 9.6 -5.8 27 6.9 W 2 9 1 5 1018.2 1016.0 0.0
03/02:30am 14.2 11.5 -5.5 25 7.5 CALM 0 6 0 3 1018.3 1016.1 0.0
03/02:00am 14.2 11.2 -5.5 25 7.5 SW 2 7 1 4 1018.3 1016.1 0.0
03/01:30am 14.4 11.7 -5.9 24 7.7 CALM 0 0 0 0 1018.4 1016.2 0.0
03/01:00am 14.4 10.0 -5.9 24 7.7 SW 9 13 5 7 1018.7 1016.5 0.0
03/12:30am 15.3 12.6 -5.7 23 8.1 CALM 0 0 0 0 1018.6 1016.4 0.0
03/12:00am 16.9 14.2 -6.2 20 9.0 E 0 0 0 0 1018.9 1016.7 0.0
 
Date/Time
WST
Temp
°C
App
Temp
°C
Dew
Point
Rel
Hum
%
Delta-T
°C
Wind Press
QNH
hPa
Press
MSL
hPa
Rain
since 9 am
mm
Dir
 
Spd
km/h
Gust
km/h
Spd
kts
Gust
kts
02/11:30pm 18.3 14.7 -7.1 17 9.8 NE 4 9 2 5 1019.0 1016.8 0.0
02/11:00pm 18.5 14.3 -7.8 16 10.0 SSW 7 11 4 6 1019.1 1016.9 0.0
02/10:30pm 18.2 14.7 -6.5 18 9.7 WNW 4 6 2 3 1019.0 1016.8 0.0
02/10:00pm 18.5 15.7 -7.0 17 9.9 CALM 0 0 0 0 1019.0 1016.8 0.0
02/09:30pm 19.7 16.9 -6.8 16 10.5 CALM 0 0 0 0 1019.1 1016.9 0.0
02/09:00pm 23.6 19.2 -9.8 10 12.9 N 7 9 4 5 1019.1 1016.9 0.0
02/08:30pm 24.0 18.9 -9.5 10 13.1 N 11 13 6 7 1018.9 1016.7 0.0
02/08:00pm 21.8 18.9 -7.8 13 11.7 CALM 0 7 0 4 1018.8 1016.6 0.0
02/07:30pm 23.9 19.6 -9.5 10 13.1 N 7 9 4 5 1018.5 1016.3 0.0
02/07:00pm 25.3 20.8 -11.3 8 14.0 N 7 7 4 4 1018.1 1015.9 0.0
02/06:30pm 27.1 22.6 -11.6 7 15.1 NNW 7 9 4 5 1017.7 1015.4 0.0
02/06:00pm 29.0 24.0 -14.4 5 16.4 N 9 11 5 6 1017.2 1015.0 0.0
02/05:30pm 30.6 24.7 -16.0 4 17.4 N 13 17 7 9 1016.9 1014.7 0.0
02/05:00pm 31.7 24.9 -18.6 3 18.2 N 17 24 9 13 1016.7 1014.5 0.0
02/04:30pm 32.7 26.7 -18.0 3 18.8 N 13 20 7 11 1016.6 1014.4 0.0
02/04:00pm 33.0 27.0 -17.8 3 18.9 NNW 13 22 7 12 1016.6 1014.4 0.0
02/03:30pm 32.7 26.7 -18.0 3 18.8 N 13 24 7 13 1016.7 1014.5 0.0
02/03:00pm 32.4 25.7 -18.2 3 18.6 N 17 30 9 16 1016.8 1014.6 0.0
02/02:30pm 32.2 25.0 -14.9 4 18.3 NE 20 32 11 17 1016.8 1014.6 0.0
02/02:00pm 31.6 24.6 -12.6 5 17.7 NNE 20 30 11 16 1017.2 1015.0 0.0
02/01:30pm 31.3 25.4 -10.5 6 17.3 N 15 28 8 15 1017.7 1015.4 0.0
02/01:00pm 31.5 25.2 -10.4 6 17.4 NNW 17 32 9 17 1018.2 1016.0 0.0
02/12:30pm 30.7 23.3 -7.3 8 16.5 N 24 32 13 17 1018.6 1016.4 0.0
02/12:00pm 30.1 23.8 -3.6 11 15.5 NNE 20 28 11 15 1019.0 1016.8 0.0
02/11:30am 29.5 23.9 -2.9 12 15.0 N 17 26 9 14 1019.5 1017.2 0.0
02/11:00am 29.0 23.8 -0.2 15 14.1 N 17 22 9 12 1020.2 1018.0 0.0
02/10:30am 27.3 22.6 0.9 18 12.9 NNE 15 22 8 12 1020.7 1018.5 0.0
02/10:00am 26.0 20.5 2.0 21 11.8 NNE 20 28 11 15 1021.0 1018.8 0.0
02/09:30am 24.6 19.8 2.7 24 10.8 NE 17 22 9 12 1021.1 1018.9 0.0
02/09:00am 22.4 19.1 -1.0 21 10.6 E 6 7 3 4 1021.2 1019.1 0.0
02/08:30am 18.7 15.1 -3.4 22 9.3 WSW 6 7 3 4 1021.1 - 0.0
02/08:00am 16.5 12.8 -4.1 24 8.3 SW 6 7 3 4 1020.9 - 0.0
02/07:30am 13.9 10.0 -4.8 27 7.3 W 7 9 4 5 1020.6 - 0.0
02/07:00am 12.2 7.8 -5.7 28 6.7 WSW 9 11 5 6 1020.1 - 0.0
02/06:30am 11.9 7.5 -5.5 29 6.5 WSW 9 13 5 7 1019.8 - 0.0
02/06:00am 12.2 9.1 -5.7 28 6.7 W 2 6 1 3 1019.2 1017.0 0.0
02/05:30am 12.0 8.0 -5.9 28 6.6 WSW 7 9 4 5 1019.2 - 0.0
02/05:00am 12.2 9.1 -5.7 28 6.7 SE 2 7 1 4 1018.7 - 0.0
02/04:30am 14.9 10.9 -6.0 23 8.0 ESE 7 13 4 7 1018.6 - 0.0
02/04:00am 14.2 9.8 -6.1 24 7.7 ESE 9 13 5 7 1018.4 - 0.0
02/03:30am 13.9 9.1 -5.8 25 7.5 SSE 11 15 6 8 1018.2 - 0.0
02/03:00am 13.1 9.1 -5.4 27 7.0 WSW 7 13 4 7 1018.5 1016.3 0.0
02/02:30am 13.1 9.6 -5.9 26 7.1 ESE 4 7 2 4 1018.3 - 0.0
02/02:00am 14.2 11.2 -5.5 25 7.5 NNE 2 6 1 3 1018.1 - 0.0
02/01:30am 16.8 12.4 -5.6 21 8.8 ENE 9 11 5 6 1018.3 - 0.0
02/01:00am 17.3 12.5 -5.8 20 9.1 NE 11 13 6 7 1018.4 - 0.0
02/12:30am 18.2 13.0 -6.5 18 9.7 ENE 13 15 7 8 1018.5 - 0.0
02/12:00am 18.9 13.3 -6.7 17 10.0 ENE 15 17 8 9 1018.7 1016.5 0.0
 
Date/Time
WST
Temp
°C
App
Temp
°C
Dew
Point
Rel
Hum
%
Delta-T
°C
Wind Press
QNH
hPa
Press
MSL
hPa
Rain
since 9 am
mm
Dir
 
Spd
km/h
Gust
km/h
Spd
kts
Gust
kts
01/11:30pm 15.6 12.8 -6.6 21 8.4 CALM 0 0 0 0 1019.0 - 0.0
01/11:00pm 16.1 12.0 -6.8 20 8.7 ESE 7 9 4 5 1019.0 - 0.0
01/10:30pm 16.9 14.2 -6.2 20 9.0 CALM 0 0 0 0 1018.8 - 0.0
01/10:00pm 17.1 12.6 -6.7 19 9.2 NW 9 11 5 6 1018.9 - 0.0
01/09:30pm 17.3 14.6 -5.8 20 9.1 CALM 0 0 0 0 1018.9 - 0.0
01/09:00pm 18.1 15.3 -7.3 17 9.8 CALM 0 0 0 0 1018.7 1016.5 0.0
01/08:30pm 19.0 16.1 -8.2 15 10.4 CALM 0 0 0 0 1018.4 - 0.0
01/08:00pm 20.3 17.3 -9.0 13 11.2 CALM 0 0 0 0 1018.2 - 0.0
01/07:30pm 22.1 18.3 -9.7 11 12.2 NNE 4 7 2 4 1017.9 - 0.0
01/07:00pm 25.2 20.7 -11.4 8 14.0 NE 7 11 4 6 1017.3 - 0.0
01/06:30pm 25.8 21.2 -12.6 7 14.5 N 7 7 4 4 1017.1 - 0.0
01/06:00pm 28.4 23.6 -17.5 4 16.3 N 7 11 4 6 1016.8 1014.6 0.0
01/05:30pm 30.2 24.9 -19.6 3 17.5 N 9 13 5 7 1016.6 - 0.0
01/05:00pm 31.1 25.1 -19.0 3 18.0 NE 13 17 7 9 1016.3 - 0.0
01/04:30pm 30.9 23.6 -23.8 2 18.1 NNE 19 28 10 15 1016.1 - 0.0
01/04:00pm 31.6 25.2 -18.7 3 18.2 N 15 20 8 11 1016.0 - 0.0
01/03:30pm 31.4 25.0 -18.8 3 18.1 NNE 15 28 8 15 1016.2 - 0.0
01/03:00pm 31.2 25.6 -19.0 3 18.0 NNE 11 20 6 11 1016.1 1013.9 0.0
01/02:30pm 30.7 24.3 -19.3 3 17.8 NE 15 24 8 13 1016.5 - 0.0
01/02:00pm 31.2 25.7 -15.6 4 17.7 N 11 17 6 9 1016.8 - 0.0
01/01:30pm 30.9 26.3 -13.1 5 17.3 NE 7 19 4 10 1017.1 - 0.0
01/01:00pm 30.4 24.7 -13.4 5 17.1 N 13 20 7 11 1017.5 - 0.0
01/12:30pm 30.8 26.5 -10.9 6 17.0 N 6 15 3 8 1017.8 - 0.0
01/12:00pm 30.2 26.2 -7.7 8 16.2 SSE 6 13 3 7 1018.3 1016.1 0.0
01/11:30am 29.5 25.5 -5.3 10 15.5 NNE 7 19 4 10 1018.8 - 0.0
01/11:00am 28.3 23.2 -4.9 11 14.7 E 13 19 7 10 1019.2 - 0.0
01/10:30am 26.7 21.6 -2.1 15 13.3 E 15 20 8 11 1019.8 - 0.0
01/10:00am 26.1 21.2 -0.8 17 12.6 E 15 24 8 13 1019.9 - 0.0
01/09:30am 24.9 19.1 -0.3 19 11.8 E 20 26 11 14 1020.0 - 0.0
01/09:00am 23.5 20.6 1.2 23 10.6 SE 6 11 3 6 1020.0 1017.8 0.0
01/08:30am 20.7 16.8 1.1 27 9.2 SSE 11 15 6 8 1019.7 - 0.0
01/08:00am 19.4 15.5 1.4 30 8.4 S 11 15 6 8 1019.3 - 0.0
01/07:30am 16.2 12.4 -0.5 32 7.3 SW 9 11 5 6 1018.9 - 0.0
01/07:00am 12.6 9.0 -2.1 36 6.0 WSW 7 13 4 7 1018.7 - 0.0
01/06:30am 10.1 6.0 -3.2 39 5.1 W 9 11 5 6 1018.2 - 0.0
01/06:00am 9.6 5.4 -3.7 39 5.0 SW 9 11 5 6 1017.6 1015.3 0.0
01/05:30am 10.4 7.6 -3.6 37 5.4 W 2 7 1 4 1017.2 - 0.0
01/05:00am 11.0 7.2 -3.8 35 5.7 WNW 7 11 4 6 1017.1 - 0.0
01/04:30am 12.3 8.3 -5.2 29 6.6 NE 7 9 4 5 1017.2 - 0.0
01/04:00am 12.3 8.5 -5.2 29 6.6 N 6 9 3 5 1017.2 - 0.0
01/03:30am 12.6 8.3 -4.9 29 6.7 WNW 9 11 5 6 1017.1 - 0.0
01/03:00am 14.1 11.1 -5.1 26 7.4 SSW 2 9 1 5 1017.0 1014.8 0.0
01/02:30am 13.0 8.9 -7.1 24 7.3 WSW 7 9 4 5 1016.9 - 0.0
01/02:00am 12.6 7.7 -7.4 24 7.2 WSW 11 13 6 7 1017.0 - 0.0
01/01:30am 12.6 8.4 -7.4 24 7.2 WNW 7 9 4 5 1016.9 - 0.0
01/01:00am 13.2 9.6 -7.4 23 7.5 S 4 9 2 5 1017.0 - 0.0
01/12:30am 14.7 11.9 -7.4 21 8.2 CALM 0 0 0 0 1017.1 - 0.0
01/12:00am 14.8 11.2 -7.9 20 8.3 S 4 7 2 4 1017.2 1015.0 0.0
 
Date/Time
WST
Temp
°C
App
Temp
°C
Dew
Point
Rel
Hum
%
Delta-T
°C
Wind Press
QNH
hPa
Press
MSL
hPa
Rain
since 9 am
mm
Dir
 
Spd
km/h
Gust
km/h
Spd
kts
Gust
kts
31/11:30pm 16.5 13.6 -8.6 17 9.2 CALM 0 0 0 0 1017.5 - 0.0
31/11:00pm 16.7 12.4 -9.2 16 9.4 SW 7 11 4 6 1017.2 - 0.0
31/10:30pm 16.7 11.6 -9.2 16 9.4 WSW 11 15 6 8 1017.2 - 0.0
31/10:00pm 17.0 11.6 -8.2 17 9.4 SSW 13 19 7 10 1017.3 - 0.0
31/09:30pm 17.0 14.1 -7.5 18 9.3 CALM 0 0 0 0 1017.1 - 0.0
31/09:00pm 17.8 14.9 -7.5 17 9.7 CALM 0 0 0 0 1017.0 1015.6 0.0
31/08:30pm 18.9 16.0 -8.3 15 10.3 CALM 0 0 0 0 1016.9 - 0.0
31/08:00pm 19.2 16.2 -8.9 14 10.6 CALM 0 0 0 0 1016.8 - 0.0
31/07:30pm 20.4 17.4 -9.9 12 11.3 CALM 0 0 0 0 1016.5 - 0.0
31/07:00pm 24.5 19.6 -11.9 8 13.7 NNE 9 11 5 6 1016.1 - 0.0
31/06:30pm 25.7 21.1 -12.6 7 14.4 N 7 9 4 5 1015.9 - 0.0
31/06:00pm 27.6 23.1 -15.4 5 15.7 NNE 6 7 3 4 1015.6 1014.1 0.0
31/05:30pm 29.6 24.7 -20.0 3 17.2 NW 7 11 4 6 1015.5 - 0.0
31/05:00pm 30.4 25.1 -19.5 3 17.6 NW 9 13 5 7 1015.3 - 0.0
31/04:30pm 30.4 25.5 -19.5 3 17.6 N 7 15 4 8 1015.2 - 0.0
31/04:00pm 30.6 25.7 -19.4 3 17.7 N 7 13 4 7 1015.1 - 0.0
31/03:30pm 30.7 25.4 -19.3 3 17.8 NW 9 20 5 11 1015.2 - 0.0
31/03:00pm 30.9 26.6 -19.2 3 17.8 ESE 4 13 2 7 1015.3 1013.9 0.0
31/02:30pm 30.6 25.3 -19.4 3 17.7 W 9 20 5 11 1015.6 - 0.0
31/02:00pm 30.2 24.5 -19.6 3 17.5 N 11 19 6 10 1015.8 - 0.0
31/01:30pm 30.1 24.2 -16.3 4 17.2 ENE 13 24 7 13 1016.2 - 0.0
31/01:00pm 29.1 22.4 -17.0 4 16.7 N 17 26 9 14 1016.7 - 0.0
31/12:30pm 28.8 21.7 -17.2 4 16.6 NNE 19 22 10 12 1017.3 - 0.0

Other Formats:

Comma delimited format used in spreadsheet applications
http://www.bom.gov.au/fwo/IDW60801/IDW60801.94317.axf

JavaScript Object Notation format (JSON) in row-major order
http://www.bom.gov.au/fwo/IDW60801/IDW60801.94317.json